Sac City, IA

2:58 PM CST on December 10, 2016 (GMT -0600)
Lake City | | Change Station
Active Advisory: Winter Weather Advisory

Elev 1191 ft 42.30 °N, 94.75 °W | Updated 12 seconds ago

Overcast
Overcast
22.5 °F
Feels Like 11 °F
N
12.1
Wind Variable Wind from ESE
Gusts 12.3 mph

Today
High -- | Low -- °F
--% Chance of Precip.
Yesterday
High -- | Low -- °F
Precip. -- in
Pressure 30.16 in
Visibility 9.0 miles
Clouds Scattered Clouds 700 ft
Windchill 11 °F
Dew Point -12 °F
Humidity 21%
Rainfall 0.00 in
Snow Depth Not available.
7:38 AM 4:47 PM
Waxing Gibbous, 86% visible
METAR KSLB 102055Z AUTO 12012KT 9SM SCT007 M07/M08 A3016 RMK AO2
Pressure 30.16 in
Visibility 9.0 miles
Clouds Scattered Clouds 700 ft
Windchill 11 °F
Dew Point -12 °F
Humidity 21%
Rainfall 0.00 in
Snow Depth Not available.
7:38 AM 4:47 PM
Waxing Gibbous, 86% visible
METAR KSLB 102055Z AUTO 12012KT 9SM SCT007 M07/M08 A3016 RMK AO2

10-Day Weather Forecast

Almanac

Astronomy

Dec. 10, 2016 Rise Set
Actual Time
Civil Twilight
Nautical Twilight
Astronomical Twilight
Moon
Length of Visible Light
Length of Day
Tomorrow will be .
, % of the Moon is Illuminated

Today's Extremes

State Highs State Lows

Community

WunderPhotos

Upload Photos

1,956,659 photos uploaded!

WunderBlog® & News

Nearby

Air Quality

  Air Quality AQ Index Pollutant
Not available.

Snow Depth

Station Depth Elevation

Earthquake Activity

City Distance Mag. Time & Date
Minimum magnitude displayed is 2.5.

Coastal Water Temperatures

Place Temperature

Stations

Nearby Weather Stations

Station Location Temp. Windchill Dew Point Humidity Wind Precip. Elev Updated Type
                   

Watches & Warnings

Winter Weather Advisory
Issued: 10:51 AM CST Dec. 10, 2016 – National Weather Service

... Winter Weather Advisory remains in effect until 3 PM CST
Sunday...

* short term trends... a band of light to moderate snowfall will
move from west to east across the area through this afternoon.
Expect accumulations of 1 to 3 inches during this time and for
roadways to become quickly snow covered and hazardous.

* Storm total snow accumulations... total accumulations for the
event will range from 2 to 4 inches south of Highway 20 and 4 to
8 inches to the north. Locally higher accumulations may occur.

* Winds/visibility... southeast winds will be around 15 mph gusts
near 25 mph overnight. Visibilities will be reduced to less than
one half mile at times.

* Impacts... the primary impacts will be very hazardous travel
conditions due to reduced visibility and snow covered and icy
roads.

Precautionary/preparedness actions...

A Winter Weather Advisory for snow means that periods of snow
will cause primarily travel difficulties. Be prepared for snow
covered roads and limited visibilities and use caution while
driving.